Time;durP1;ratioP1;P1;durP2;ratioP2;P2;SDS_P1;SDS_P2;PMS_P1;PMS_P2;Temp;Humidity;BMP_temperature;BMP_pressure;BME280_temperature;BME280_humidity;BME280_pressure;Samples;Min_cycle;Max_cycle;Signal;HPM_P1;HPM_P2
2023/03/27 00:00:24;;;;;;;13.82;4.32;;;;;;;0.58;100.00;160725.28;5051976;28;20119;-64
2023/03/27 00:02:49;;;;;;;7.22;3.85;;;;;;;0.50;100.00;160703.84;5052451;28;20021;-65
2023/03/27 00:05:19;;;;;;;13.32;5.65;;;;;;;0.44;100.00;160687.75;5051163;28;20558;-65
2023/03/27 00:07:49;;;;;;;12.68;6.35;;;;;;;0.18;100.00;160619.41;5052796;28;20399;-64
2023/03/27 00:10:15;;;;;;;20.17;10.75;;;;;;;0.24;100.00;160636.84;5050993;28;20044;-63
2023/03/27 00:12:43;;;;;;;43.63;20.80;;;;;;;0.18;100.00;160620.78;5052588;28;20032;-63
2023/03/27 00:15:14;;;;;;;45.35;19.80;;;;;;;0.13;100.00;160607.34;5051586;28;20044;-64
2023/03/27 00:17:40;;;;;;;31.15;13.32;;;;;;;0.09;100.00;160597.94;5052699;28;20028;-63
2023/03/27 00:20:05;;;;;;;32.85;14.25;;;;;;;0.06;100.00;160588.56;5051247;28;20048;-64
2023/03/27 00:22:31;;;;;;;29.05;10.32;;;;;;;-0.13;100.00;160540.34;5052734;28;20032;-64
2023/03/27 00:24:56;;;;;;;16.98;7.63;;;;;;;-0.02;100.00;160569.81;5050752;28;20045;-64
2023/03/27 00:27:23;;;;;;;14.35;8.02;;;;;;;-0.05;100.00;160561.81;5066378;28;20021;-64
2023/03/27 00:29:49;;;;;;;31.95;13.25;;;;;;;-0.09;100.00;160551.06;5031277;28;20555;-64
2023/03/27 00:32:14;;;;;;;19.85;10.80;;;;;;;-0.21;100.00;160518.91;5031081;28;20029;-64
2023/03/27 00:34:40;;;;;;;20.55;8.80;;;;;;;-0.15;100.00;160534.97;5032752;28;20029;-65
2023/03/27 00:37:06;;;;;;;14.35;7.35;;;;;;;-0.21;100.00;160518.91;5031009;28;20519;-64
2023/03/27 00:39:31;;;;;;;13.40;7.22;;;;;;;-0.28;100.00;160501.47;5032045;28;20025;-64
2023/03/27 00:41:57;;;;;;;16.88;7.13;;;;;;;-0.28;100.00;160500.16;5064400;28;20515;-63
2023/03/27 00:44:29;;;;;;;17.55;8.88;;;;;;;-0.30;100.00;160494.78;5072237;28;20025;-63
2023/03/27 00:46:55;;;;;;;13.65;8.07;;;;;;;-0.35;100.00;160484.09;5070348;28;20037;-63
2023/03/27 00:49:25;;;;;;;22.10;9.10;;;;;;;-0.38;100.00;160476.03;5072345;28;20024;-63
2023/03/27 00:51:52;;;;;;;28.33;8.82;;;;;;;-0.42;100.00;160465.34;5070450;28;20047;-63
2023/03/27 00:54:25;;;;;;;21.02;6.97;;;;;;;-0.46;100.00;160453.25;5071699;28;20085;-63
2023/03/27 00:56:54;;;;;;;9.90;5.93;;;;;;;-0.49;100.00;160446.56;5070668;28;20044;-63
2023/03/27 00:59:21;;;;;;;;;;;;;;;-0.51;100.00;160441.22;5072645;28;20036;-63
2023/03/27 01:01:47;;;;;;;12.30;7.15;;;;;;;-0.54;100.00;160433.16;5069881;28;19916;-64
2023/03/27 01:04:13;;;;;;;22.88;7.97;;;;;;;-0.57;100.00;160425.13;5071981;28;20028;-64
2023/03/27 01:06:40;;;;;;;21.75;9.05;;;;;;;-0.59;100.00;160419.78;5070420;28;20060;-63
2023/03/27 01:09:08;;;;;;;28.83;12.43;;;;;;;-0.59;100.00;160421.09;5071055;28;20550;-63
2023/03/27 01:11:50;;;;;;;42.53;13.07;;;;;;;-0.61;100.00;160414.41;5070338;28;20040;-63
2023/03/27 01:14:35;;;;;;;33.25;15.30;;;;;;;-0.68;100.00;160398.34;5071788;28;20028;-63
2023/03/27 01:17:24;;;;;;;20.58;8.40;;;;;;;-0.66;100.00;160402.34;5069542;28;20037;-64
2023/03/27 01:20:13;;;;;;;23.33;10.05;;;;;;;-0.74;100.00;160382.28;5071104;28;20048;-63
2023/03/27 01:23:12;;;;;;;13.38;5.47;;;;;;;-0.81;100.00;160363.53;5049318;28;20040;-64
2023/03/27 01:25:58;;;;;;;22.10;7.85;;;;;;;-0.92;100.00;160334.03;5049774;28;20048;-64
2023/03/27 01:28:53;;;;;;;10.70;5.32;;;;;;;-1.06;100.00;160299.22;5051618;28;20046;-64
2023/03/27 01:31:55;;;;;;;9.20;4.97;;;;;;;-1.15;100.00;160275.09;5049647;28;20036;-63
2023/03/27 01:35:02;;;;;;;5.07;4.53;;;;;;;-1.20;100.00;160261.75;5060346;28;20387;-64
2023/03/27 01:38:02;;;;;;;16.60;4.03;;;;;;;-1.25;100.00;160249.69;5069738;28;20040;-64
2023/03/27 01:40:37;;;;;;;9.77;5.03;;;;;;;-1.30;100.00;160237.63;5069547;28;20040;-64
2023/03/27 01:43:07;;;;;;;9.32;5.15;;;;;;;-1.32;100.00;160230.94;5071088;28;20043;-64
2023/03/27 01:45:56;;;;;;;10.52;4.88;;;;;;;-1.41;100.00;160206.81;5069522;28;20049;-63
2023/03/27 01:48:30;;;;;;;11.90;6.95;;;;;;;-1.41;100.00;160208.19;5070997;28;20495;-63
2023/03/27 01:51:02;;;;;;;12.75;4.53;;;;;;;-1.45;100.00;160197.47;5069468;28;20048;-63
2023/03/27 01:53:33;;;;;;;14.50;8.32;;;;;;;-1.48;100.00;160190.78;5070780;28;20025;-63
2023/03/27 01:56:17;;;;;;;7.90;3.97;;;;;;;-1.55;100.00;160170.72;5069531;28;20047;-63
2023/03/27 01:58:48;;;;;;;9.27;5.32;;;;;;;-1.58;100.00;160162.66;5070925;28;20027;-63
2023/03/27 02:01:25;;;;;;;6.30;3.72;;;;;;;-1.63;100.00;160151.97;5069488;28;20243;-63
2023/03/27 02:03:54;;;;;;;17.85;8.55;;;;;;;-1.69;100.00;160135.94;5070455;28;20383;-63
2023/03/27 02:06:27;;;;;;;6.22;4.60;;;;;;;-1.72;100.00;160127.88;5069445;28;20044;-63
2023/03/27 02:08:58;;;;;;;4.78;3.42;;;;;;;-1.79;100.00;160109.13;5070465;28;20438;-63
2023/03/27 02:11:29;;;;;;;7.13;4.88;;;;;;;-1.84;100.00;160095.78;5069410;28;20049;-63
2023/03/27 02:14:02;;;;;;;11.15;5.88;;;;;;;-1.89;100.00;160082.34;5070694;28;20070;-63
2023/03/27 02:16:32;;;;;;;19.77;6.40;;;;;;;-1.91;100.00;160078.34;5049098;28;20077;-63
2023/03/27 02:19:03;;;;;;;8.70;5.47;;;;;;;-1.92;100.00;160077.03;5050349;28;20407;-64
2023/03/27 02:21:32;;;;;;;5.60;4.22;;;;;;;-1.95;100.00;160067.69;5049505;28;20104;-64
2023/03/27 02:24:00;;;;;;;10.95;4.72;;;;;;;-1.96;100.00;160066.31;5050168;28;20091;-64
2023/03/27 02:26:27;;;;;;;17.38;5.85;;;;;;;-1.94;100.00;160071.66;5049129;28;20091;-63
2023/03/27 02:29:16;;;;;;;15.60;5.32;;;;;;;-1.96;100.00;160066.31;5051069;28;20093;-64
2023/03/27 02:31:47;;;;;;;10.70;5.35;;;;;;;-1.98;100.00;160061.00;5068807;28;20083;-64
2023/03/27 02:34:41;;;;;;;6.85;3.90;;;;;;;-1.98;100.00;160061.00;5071897;28;20043;-63
2023/03/27 02:37:18;;;;;;;9.27;3.88;;;;;;;-2.04;100.00;160043.56;5077157;28;20035;-63
2023/03/27 02:40:17;;;;;;;13.90;6.50;;;;;;;-2.01;100.00;160052.94;5075529;28;20120;-62
2023/03/27 02:43:06;;;;;;;7.95;4.68;;;;;;;-2.00;100.00;160055.63;5076495;28;20036;-63
2023/03/27 02:45:53;;;;;;;11.82;5.93;;;;;;;-1.97;100.00;160063.63;5075210;28;20525;-62
2023/03/27 02:48:42;;;;;;;12.70;5.75;;;;;;;-1.84;100.00;160095.78;5075869;28;20383;-63
2023/03/27 02:51:23;;;;;;;14.75;5.93;;;;;;;-1.74;100.00;160122.50;5075775;28;20047;-63
2023/03/27 02:54:02;;;;;;;11.45;4.80;;;;;;;-1.62;100.00;160154.66;5076707;28;20119;-63
2023/03/27 02:56:31;;;;;;;15.32;4.65;;;;;;;-1.51;100.00;160181.41;5075643;28;20040;-63
2023/03/27 02:59:05;;;;;;;18.30;6.55;;;;;;;-1.45;100.00;160197.47;5076880;28;20364;-62
2023/03/27 03:01:33;;;;;;;10.88;5.45;;;;;;;-1.39;100.00;160213.56;5075210;28;20037;-63
2023/03/27 03:04:09;;;;;;;10.10;4.78;;;;;;;-1.44;100.00;160200.16;5076995;28;20024;-62
2023/03/27 03:06:35;;;;;;;9.13;7.68;;;;;;;-1.27;100.00;160244.34;5074876;28;20046;-62
2023/03/27 03:09:05;;;;;;;15.73;5.03;;;;;;;-1.23;100.00;160255.03;5076450;28;20391;-63
2023/03/27 03:11:33;;;;;;;11.85;6.25;;;;;;;-1.21;100.00;160259.06;5075633;28;20399;-63
2023/03/27 03:13:59;;;;;;;21.27;7.53;;;;;;;-1.17;100.00;160269.78;5077011;28;20082;-63
2023/03/27 03:16:25;;;;;;;15.32;5.80;;;;;;;-1.15;100.00;160275.09;5075162;28;20036;-63
2023/03/27 03:18:51;;;;;;;11.00;4.50;;;;;;;-1.11;100.00;160285.84;5076651;28;20048;-63
2023/03/27 03:21:16;;;;;;;11.77;5.05;;;;;;;-1.09;100.00;160289.84;5075281;28;20487;-63
2023/03/27 03:23:42;;;;;;;18.10;6.63;;;;;;;-1.10;100.00;160288.53;5076363;28;20024;-63
2023/03/27 03:26:07;;;;;;;10.57;5.47;;;;;;;-1.13;100.00;160281.84;5075397;28;20032;-63
2023/03/27 03:28:35;;;;;;;16.02;6.43;;;;;;;-1.09;100.00;160291.22;5076951;28;20081;-63
2023/03/27 03:31:04;;;;;;;5.83;4.23;;;;;;;-1.09;100.00;160289.84;5074735;28;20457;-63
2023/03/27 03:33:30;;;;;;;13.35;5.95;;;;;;;-1.15;100.00;160275.09;5076715;28;20473;-65
2023/03/27 03:35:59;;;;;;;10.88;5.95;;;;;;;-1.09;100.00;160291.22;5075121;28;20036;-64
2023/03/27 03:38:25;;;;;;;14.45;5.55;;;;;;;-0.91;100.00;160336.72;5076488;28;20027;-64
2023/03/27 03:40:54;;;;;;;10.20;5.43;;;;;;;-0.87;100.00;160348.78;5074871;28;20044;-65
2023/03/27 03:43:21;;;;;;;18.92;5.72;;;;;;;-0.86;100.00;160351.47;5076761;28;20021;-64
2023/03/27 03:45:46;;;;;;;16.75;4.97;;;;;;;-0.88;100.00;160344.78;5072081;28;20051;-64
2023/03/27 03:48:12;;;;;;;10.18;7.05;;;;;;;-0.94;100.00;160328.72;5073483;28;20029;-64
2023/03/27 03:50:37;;;;;;;6.10;4.55;;;;;;;-0.96;100.00;160326.03;5071947;28;20041;-64
2023/03/27 03:53:02;;;;;;;16.50;4.85;;;;;;;-0.94;100.00;160330.03;5072846;28;20043;-65
2023/03/27 03:55:28;;;;;;;12.77;6.38;;;;;;;-0.99;100.00;160317.97;5071857;28;20088;-63
2023/03/27 03:57:54;;;;;;;13.43;5.25;;;;;;;-1.00;100.00;160315.28;5073086;28;20032;-65
2023/03/27 04:00:21;;;;;;;14.23;4.85;;;;;;;-1.02;100.00;160309.97;5071654;28;20166;-67
2023/03/27 04:02:49;;;;;;;10.13;4.60;;;;;;;-1.03;100.00;160307.28;5067285;28;20036;-58
2023/03/27 04:05:14;;;;;;;21.33;6.70;;;;;;;-0.98;100.00;160320.66;5071457;28;20124;-58
2023/03/27 04:07:41;;;;;;;9.02;5.22;;;;;;;-1.02;100.00;160308.59;5072761;28;20445;-59
2023/03/27 04:10:07;;;;;;;14.50;5.72;;;;;;;-0.99;100.00;160316.66;5070560;28;20043;-58
2023/03/27 04:12:33;;;;;;;12.75;3.85;;;;;;;-0.88;100.00;160346.09;5072894;28;20368;-58
2023/03/27 04:14:58;;;;;;;10.43;6.60;;;;;;;-0.97;100.00;160322.03;5071044;28;20044;-58
2023/03/27 04:17:25;;;;;;;22.10;6.63;;;;;;;-0.85;100.00;160352.78;5072512;28;20037;-58
2023/03/27 04:19:53;;;;;;;6.75;4.35;;;;;;;-0.82;100.00;160360.84;5070994;28;20044;-59
2023/03/27 04:22:21;;;;;;;13.93;4.60;;;;;;;-0.81;100.00;160363.53;5072626;28;20399;-59
2023/03/27 04:24:49;;;;;;;8.43;5.45;;;;;;;-0.75;100.00;160379.59;5071070;28;20036;-58
2023/03/27 04:27:15;;;;;;;17.25;6.00;;;;;;;-0.70;100.00;160392.97;5072409;28;20020;-58
2023/03/27 04:29:42;;;;;;;13.38;8.60;;;;;;;-0.66;100.00;160403.69;5070747;28;20568;-58
2023/03/27 04:32:11;;;;;;;15.48;5.63;;;;;;;-0.60;100.00;160417.09;5072657;28;20028;-59
2023/03/27 04:34:37;;;;;;;10.88;4.53;;;;;;;-0.56;100.00;160427.81;5071109;28;20029;-58
2023/03/27 04:37:03;;;;;;;20.27;5.82;;;;;;;-0.50;100.00;160445.22;5072113;28;20069;-59
2023/03/27 04:39:28;;;;;;;11.23;5.70;;;;;;;-0.43;100.00;160462.66;5071110;28;20028;-59
2023/03/27 04:41:54;;;;;;;8.13;3.78;;;;;;;-0.40;100.00;160470.66;5072185;28;20023;-59
2023/03/27 04:44:20;;;;;;;8.85;5.68;;;;;;;-0.32;100.00;160492.09;5070877;28;20474;-58
2023/03/27 04:46:49;;;;;;;17.75;5.38;;;;;;;-0.27;100.00;160502.84;5072156;28;20016;-58
2023/03/27 04:49:17;;;;;;;13.05;5.13;;;;;;;-0.25;100.00;160508.16;5070847;28;20134;-58
2023/03/27 04:51:43;;;;;;;17.05;7.22;;;;;;;-0.22;100.00;160516.22;5071781;28;20070;-59
2023/03/27 04:54:09;;;;;;;14.30;5.43;;;;;;;-0.18;100.00;160526.91;5072446;28;20115;-58
2023/03/27 04:56:34;;;;;;;19.75;5.43;;;;;;;-0.14;100.00;160537.66;5070642;28;20033;-58
2023/03/27 04:59:02;;;;;;;6.78;4.53;;;;;;;-0.14;100.00;160537.66;5071725;28;20490;-59
2023/03/27 05:01:27;;;;;;;4.78;3.80;;;;;;;-0.13;100.00;160540.34;5070439;28;20516;-59
2023/03/27 05:03:53;;;;;;;15.50;5.53;;;;;;;-0.17;100.00;160529.59;5071768;28;20103;-58
2023/03/27 05:06:19;;;;;;;9.15;5.80;;;;;;;-0.23;100.00;160513.53;5069878;28;20058;-59
2023/03/27 05:08:44;;;;;;;5.10;3.72;;;;;;;-0.18;100.00;160526.91;5071764;28;20107;-59
2023/03/27 05:11:09;;;;;;;8.25;4.07;;;;;;;-0.16;100.00;160532.28;5070413;28;20181;-59
2023/03/27 05:13:35;;;;;;;10.73;5.40;;;;;;;-0.24;100.00;160510.84;5071587;28;20024;-59
2023/03/27 05:16:01;;;;;;;8.38;5.18;;;;;;;-0.05;100.00;160561.81;5070243;28;20051;-59
2023/03/27 05:18:29;;;;;;;13.52;6.60;;;;;;;0.02;100.00;160577.88;5071638;28;20470;-59
2023/03/27 05:20:57;;;;;;;6.95;4.28;;;;;;;0.04;100.00;160584.56;5069789;28;20032;-59
2023/03/27 05:23:23;;;;;;;18.00;5.30;;;;;;;0.01;100.00;160575.19;5071765;28;20016;-59
2023/03/27 05:25:49;;;;;;;8.55;5.82;;;;;;;-0.02;100.00;160569.81;5069812;28;20117;-59
2023/03/27 05:28:14;;;;;;;12.68;7.80;;;;;;;-0.09;100.00;160549.72;5071451;28;20035;-59
2023/03/27 05:30:41;;;;;;;7.18;5.45;;;;;;;-0.12;100.00;160543.03;5070059;28;20051;-59
2023/03/27 05:33:07;;;;;;;17.88;7.47;;;;;;;-0.17;100.00;160529.59;5071351;28;20036;-59
2023/03/27 05:35:33;;;;;;;13.48;5.53;;;;;;;-0.23;100.00;160513.53;5069788;28;20037;-59
2023/03/27 05:37:58;;;;;;;14.00;5.43;;;;;;;-0.29;100.00;160497.47;5071098;28;20043;-59
2023/03/27 05:40:25;;;;;;;18.10;5.38;;;;;;;-0.28;100.00;160500.16;5069946;28;20086;-59
2023/03/27 05:42:52;;;;;;;7.60;5.40;;;;;;;-0.34;100.00;160486.78;5070736;28;20406;-59
2023/03/27 05:45:18;;;;;;;15.07;8.02;;;;;;;-0.36;100.00;160481.41;5069783;28;20046;-59
2023/03/27 05:47:48;;;;;;;12.55;5.80;;;;;;;-0.39;100.00;160472.03;5070999;28;20020;-59
2023/03/27 05:50:14;;;;;;;15.02;6.43;;;;;;;-0.45;100.00;160455.97;5069371;28;20309;-59
2023/03/27 05:52:40;;;;;;;16.38;6.03;;;;;;;-0.46;100.00;160454.59;5069290;28;20419;-59
2023/03/27 05:55:07;;;;;;;12.30;6.45;;;;;;;-0.51;100.00;160442.53;5068917;28;20036;-59
2023/03/27 05:57:35;;;;;;;12.60;4.55;;;;;;;-0.49;100.00;160447.91;5070726;28;20025;-59
2023/03/27 06:00:01;;;;;;;11.32;5.05;;;;;;;-0.48;100.00;160449.22;5069320;28;20032;-59
2023/03/27 06:02:27;;;;;;;13.35;4.25;;;;;;;-0.44;100.00;160459.97;5071428;28;20068;-59
2023/03/27 06:04:52;;;;;;;8.32;4.43;;;;;;;-0.44;100.00;160458.59;5068778;28;20040;-59
2023/03/27 06:07:17;;;;;;;11.95;3.28;;;;;;;-0.40;100.00;160469.34;5066446;28;20028;-59
2023/03/27 06:09:44;;;;;;;8.00;4.57;;;;;;;-0.35;100.00;160482.72;5067931;28;20071;-59
2023/03/27 06:12:10;;;;;;;11.05;3.65;;;;;;;-0.33;100.00;160489.41;5067793;28;20025;-59
2023/03/27 06:14:35;;;;;;;8.75;4.28;;;;;;;-0.21;100.00;160518.91;5049360;28;20120;-59
2023/03/27 06:17:01;;;;;;;17.65;6.10;;;;;;;-0.19;100.00;160524.28;5050582;28;20032;-58
2023/03/27 06:19:26;;;;;;;4.05;3.67;;;;;;;-0.12;100.00;160543.03;5048609;28;20057;-59
2023/03/27 06:21:51;;;;;;;13.35;5.55;;;;;;;-0.10;100.00;160548.38;5050640;28;20025;-59
2023/03/27 06:24:17;;;;;;;16.30;6.63;;;;;;;-0.23;100.00;160513.53;5051315;28;20032;-60
2023/03/27 06:26:43;;;;;;;8.35;4.75;;;;;;;0.09;100.00;160597.94;5070036;28;20529;-58
2023/03/27 06:29:09;;;;;;;20.85;5.88;;;;;;;0.17;100.00;160616.72;5068962;28;20031;-59
2023/03/27 06:31:35;;;;;;;6.90;4.63;;;;;;;0.04;100.00;160584.56;5070618;28;20398;-59
2023/03/27 06:34:00;;;;;;;16.02;3.70;;;;;;;0.29;100.00;160648.91;5070186;28;20074;-59
2023/03/27 06:36:26;;;;;;;10.93;5.53;;;;;;;0.38;100.00;160671.69;5068640;28;20098;-59
2023/03/27 06:38:53;;;;;;;13.40;4.60;;;;;;;0.50;100.00;160703.84;5070144;28;20025;-58
2023/03/27 06:41:18;;;;;;;7.13;4.30;;;;;;;0.53;100.00;160711.91;5068926;28;20053;-58
2023/03/27 06:43:43;;;;;;;8.27;5.03;;;;;;;0.67;100.00;160746.75;5069806;28;20032;-59
2023/03/27 06:46:09;;;;;;;11.65;4.22;;;;;;;0.71;100.00;160758.81;5066215;28;20044;-58
2023/03/27 06:48:35;;;;;;;12.10;3.80;;;;;;;0.83;100.00;160789.66;5069443;28;20039;-59
2023/03/27 06:51:00;;;;;;;8.80;3.70;;;;;;;0.98;100.00;160827.22;5063874;28;20033;-59
2023/03/27 06:53:26;;;;;;;6.50;4.70;;;;;;;1.21;100.00;160887.53;5058024;28;20024;-59
2023/03/27 06:55:51;;;;;;;13.45;3.92;;;;;;;1.42;100.00;160942.56;5057028;28;20115;-59
2023/03/27 06:58:17;;;;;;;8.50;3.30;;;;;;;1.50;100.00;160964.03;5064557;28;20025;-59
2023/03/27 07:00:44;;;;;;;4.45;2.95;;;;;;;1.55;100.00;160977.44;5049945;28;20441;-59
2023/03/27 07:03:10;;;;;;;5.50;4.07;;;;;;;1.60;100.00;160988.19;5049814;28;20063;-58
2023/03/27 07:05:39;;;;;;;10.63;3.72;;;;;;;1.65;100.00;161001.59;5048142;28;20029;-58
2023/03/27 07:08:06;;;;;;;8.73;3.45;;;;;;;1.65;100.00;161002.91;5047356;28;20080;-59
2023/03/27 07:10:32;;;;;;;6.65;2.90;;;;;;;1.70;100.00;161016.34;5048496;28;20048;-58
2023/03/27 07:12:58;;;;;;;5.05;3.00;;;;;;;1.71;100.00;161017.69;5049268;28;20017;-59
2023/03/27 07:15:24;;;;;;;5.30;4.72;;;;;;;1.79;100.00;161039.16;5058877;28;20118;-59
2023/03/27 07:17:53;;;;;;;9.55;3.30;;;;;;;1.89;100.00;161066.00;5069651;28;20031;-59
2023/03/27 07:20:19;;;;;;;6.05;3.88;;;;;;;1.96;100.00;161082.09;5067353;28;20044;-59
2023/03/27 07:22:44;;;;;;;7.45;4.90;;;;;;;2.04;100.00;161103.59;5073206;28;20529;-59
2023/03/27 07:25:11;;;;;;;7.15;3.72;;;;;;;2.15;100.00;161131.78;5071858;28;20040;-59
2023/03/27 07:27:37;;;;;;;6.85;3.30;;;;;;;2.22;100.00;161151.88;5073070;28;20031;-59
2023/03/27 07:30:06;;;;;;;6.30;2.75;;;;;;;2.28;100.00;161165.28;5071634;28;20106;-59
2023/03/27 07:32:35;;;;;;;6.75;5.03;;;;;;;2.39;100.00;161194.84;5072188;28;20025;-59
2023/03/27 07:35:01;;;;;;;6.05;3.88;;;;;;;2.45;100.00;161210.94;5071607;28;20549;-59
2023/03/27 07:37:26;;;;;;;8.68;5.18;;;;;;;2.57;100.00;161240.50;5056722;28;20033;-59
2023/03/27 07:39:51;;;;;;;12.35;6.65;;;;;;;2.61;100.00;161251.22;5066321;28;20051;-59
2023/03/27 07:42:18;;;;;;;4.32;3.92;;;;;;;2.88;100.00;161322.41;5057107;28;20021;-59
2023/03/27 07:44:43;;;;;;;12.23;3.72;;;;;;;3.31;100.00;161433.88;5063820;28;20047;-59
2023/03/27 07:47:09;;;;;;;6.72;3.78;;;;;;;3.92;100.00;161592.38;5073024;28;20213;-59
2023/03/27 07:49:34;;;;;;;6.38;3.72;;;;;;;4.68;100.00;161791.34;5052117;28;20440;-59
2023/03/27 07:51:59;;;;;;;8.10;2.88;;;;;;;5.31;100.00;161954.06;5052601;28;20258;-59
2023/03/27 07:54:25;;;;;;;4.95;3.22;;;;;;;5.70;100.00;162057.63;5053839;28;20205;-59
2023/03/27 07:56:51;;;;;;;3.70;2.30;;;;;;;6.08;100.00;162154.56;5072597;28;20020;-59
2023/03/27 07:59:19;;;;;;;11.45;4.15;;;;;;;6.53;100.00;162273.03;5071385;28;20024;-60
2023/03/27 08:01:44;;;;;;;5.35;2.47;;;;;;;6.71;100.00;162318.81;5072818;28;20016;-60
2023/03/27 08:04:10;;;;;;;4.15;2.65;;;;;;;7.26;100.00;162464.22;5071175;28;20032;-59
2023/03/27 08:06:36;;;;;;;7.75;3.20;;;;;;;7.59;100.00;162550.47;5069568;28;20031;-59
2023/03/27 08:09:04;;;;;;;6.95;3.30;;;;;;;7.54;100.00;162537.00;5067391;28;20569;-59
2023/03/27 08:11:29;;;;;;;4.55;2.50;;;;;;;8.09;100.00;162679.81;5051165;28;20041;-60
2023/03/27 08:13:55;;;;;;;8.95;3.20;;;;;;;7.83;100.00;162612.44;5052096;28;20028;-60
2023/03/27 08:16:20;;;;;;;4.65;2.95;;;;;;;7.60;100.00;162553.16;5051074;28;20040;-59
2023/03/27 08:18:46;;;;;;;6.30;2.38;;;;;;;7.23;100.00;162456.19;5051847;28;20045;-59
2023/03/27 08:21:12;;;;;;;7.60;2.28;;;;;;;7.51;100.00;162528.91;5055149;28;20053;-59
2023/03/27 08:23:39;;;;;;;12.00;3.33;;;;;;;7.12;100.00;162426.53;5069046;28;20356;-59
2023/03/27 08:26:05;;;;;;;7.75;3.45;;;;;;;7.19;100.00;162444.06;5061531;28;20409;-59
2023/03/27 08:28:32;;;;;;;10.55;4.25;;;;;;;7.15;100.00;162434.63;5071212;28;20012;-59
2023/03/27 08:30:59;;;;;;;10.98;3.20;;;;;;;6.75;100.00;162329.56;5064748;28;20101;-59
2023/03/27 08:33:26;;;;;;;6.20;2.58;;;;;;;6.63;100.00;162298.59;5071015;28;20032;-59
2023/03/27 08:35:52;;;;;;;9.93;3.25;;;;;;;6.78;100.00;162337.66;5052087;28;20041;-60
2023/03/27 08:38:18;;;;;;;3.97;2.90;;;;;;;6.38;100.00;162232.63;5052226;28;20112;-60
2023/03/27 08:40:51;;;;;;;8.23;3.80;;;;;;;6.48;100.00;162260.91;5054549;28;20033;-59
2023/03/27 08:43:20;;;;;;;11.60;3.90;;;;;;;6.67;100.00;162310.72;5065481;28;20506;-60
2023/03/27 08:45:52;;;;;;;8.63;4.07;;;;;;;6.22;100.00;162192.25;5053925;28;20075;-60
2023/03/27 08:48:41;;;;;;;7.85;3.65;;;;;;;6.12;100.00;162165.38;5071592;28;20016;-60
2023/03/27 08:51:30;;;;;;;5.13;2.58;;;;;;;6.02;100.00;162141.13;5070294;28;20053;-60
2023/03/27 08:54:24;;;;;;;5.78;2.63;;;;;;;5.86;100.00;162098.00;5071687;28;20099;-60
2023/03/27 08:56:50;;;;;;;5.22;2.97;;;;;;;5.71;100.00;162059.00;5069104;28;20214;-60
2023/03/27 08:59:27;;;;;;;4.75;2.75;;;;;;;5.88;100.00;162103.41;5070407;28;20095;-59
2023/03/27 09:01:58;;;;;;;5.07;3.15;;;;;;;6.23;100.00;162193.63;5071714;28;20494;-60
2023/03/27 09:05:03;;;;;;;7.10;2.05;;;;;;;6.42;100.00;162243.44;5069833;28;20017;-59
2023/03/27 09:08:11;;;;;;;7.30;1.98;;;;;;;6.71;100.00;162318.81;5055991;28;20033;-60
2023/03/27 09:10:48;;;;;;;5.70;2.00;;;;;;;6.12;100.00;162166.69;5058333;28;20043;-60
2023/03/27 09:13:35;;;;;;;9.15;3.75;;;;;;;6.39;100.00;162236.72;5058678;28;20017;-60
2023/03/27 09:16:06;;;;;;;3.67;2.53;;;;;;;6.59;100.00;162289.19;5066599;28;20048;-59
2023/03/27 09:18:42;;;;;;;6.60;2.90;;;;;;;7.06;100.00;162410.38;5055117;28;20041;-60
2023/03/27 09:21:16;;;;;;;5.82;2.60;;;;;;;7.02;100.00;162400.94;5062389;28;20131;-60
2023/03/27 09:23:46;;;;;;;4.47;2.20;;;;;;;7.20;100.00;162448.06;5054853;28;20040;-60
2023/03/27 09:26:33;;;;;;;12.30;4.13;;;;;;;7.13;100.00;162429.22;5065896;28;20496;-60
2023/03/27 09:29:02;;;;;;;4.90;2.80;;;;;;;7.21;100.00;162450.78;5064320;28;20107;-60
2023/03/27 09:31:31;;;;;;;3.75;1.77;;;;;;;7.22;100.00;162453.47;5062894;28;20040;-60
2023/03/27 09:34:00;;;;;;;7.95;3.35;;;;;;;7.61;100.00;162555.88;5063816;28;20049;-60
2023/03/27 09:36:26;;;;;;;9.52;2.28;;;;;;;7.77;100.00;162596.28;5060173;28;20048;-60
2023/03/27 09:38:57;;;;;;;7.35;2.75;;;;;;;8.21;100.00;162712.19;5068997;28;20051;-60
2023/03/27 09:41:25;;;;;;;7.20;2.10;;;;;;;8.11;100.00;162685.19;5069161;28;20127;-60
2023/03/27 09:44:02;;;;;;;7.40;1.88;;;;;;;8.22;100.00;162714.88;5070056;28;20087;-60
2023/03/27 09:46:28;;;;;;;7.50;2.05;;;;;;;8.16;100.00;162698.66;5069174;28;20098;-60
2023/03/27 09:49:02;;;;;;;6.05;1.90;;;;;;;7.92;100.00;162636.72;5068024;28;20024;-61
2023/03/27 09:51:41;;;;;;;5.05;2.15;;;;;;;7.80;100.00;162604.34;5070193;28;20487;-60
2023/03/27 09:54:07;;;;;;;;;;;;;;;7.72;100.00;162582.78;5070947;28;20035;-60
2023/03/27 09:56:39;;;;;;;3.83;1.63;;;;;;;7.68;100.00;162572.03;5060983;28;19912;-61
2023/03/27 09:59:18;;;;;;;5.40;2.35;;;;;;;7.20;100.00;162448.06;5070301;28;20039;-60
2023/03/27 10:01:48;;;;;;;5.30;3.30;;;;;;;5.21;100.00;161928.50;5068388;28;20041;-60
2023/03/27 10:04:19;;;;;;;2.03;1.85;;;;;;;3.59;100.00;161506.41;5066025;28;20074;-61
2023/03/27 10:06:48;;;;;;;2.40;1.90;;;;;;;2.91;100.00;161329.09;5059893;28;20043;-61
2023/03/27 10:09:25;;;;;;;4.32;1.63;;;;;;;2.51;100.00;161227.03;5063701;28;20395;-61
2023/03/27 10:12:18;;;;;;;3.75;2.13;;;;;;;2.17;100.00;161138.47;5057148;28;20395;-60
2023/03/27 10:14:47;;;;;;;8.30;2.92;;;;;;;2.28;100.00;161165.28;5067782;28;20036;-60
2023/03/27 10:17:36;;;;;;;1.67;1.58;;;;;;;3.12;100.00;161384.19;5070262;28;20480;-60
2023/03/27 10:20:09;;;;;;;3.40;2.00;;;;;;;4.10;100.00;161639.41;5068008;28;20050;-61
2023/03/27 10:22:58;;;;;;;5.10;1.73;;;;;;;5.05;100.00;161886.81;5067225;28;20023;-61
2023/03/27 10:25:27;;;;;;;;;;;;;;;5.57;100.00;162022.66;5068603;28;20045;-61
2023/03/27 10:27:53;;;;;;;2.83;2.28;;;;;;;5.95;100.00;162122.25;5070464;28;19951;-60
2023/03/27 10:30:26;;;;;;;3.65;2.35;;;;;;;6.32;100.00;162219.19;5069480;28;20500;-61
2023/03/27 10:32:51;;;;;;;3.83;1.60;;;;;;;6.13;100.00;162168.06;5070285;28;20360;-61
2023/03/27 10:35:25;;;;;;;2.45;2.05;;;;;;;6.23;100.00;162193.63;5069285;28;20036;-60
2023/03/27 10:37:51;;;;;;;3.25;1.75;;;;;;;6.15;100.00;162173.41;5069813;28;20032;-60
2023/03/27 10:40:20;;;;;;;5.20;2.10;;;;;;;6.34;100.00;162224.59;5068894;28;20175;-60
2023/03/27 10:42:46;;;;;;;;;;;;;;;6.46;100.00;162254.19;5071088;28;20040;-60
2023/03/27 10:45:17;;;;;;;3.13;2.15;;;;;;;6.43;100.00;162247.47;5069047;28;19912;-61
2023/03/27 10:47:46;;;;;;;2.50;1.90;;;;;;;6.55;100.00;162278.44;5069985;28;20024;-60
2023/03/27 10:50:19;;;;;;;5.05;2.72;;;;;;;6.89;100.00;162367.28;5069488;28;20457;-61
2023/03/27 10:53:01;;;;;;;6.32;3.00;;;;;;;6.80;100.00;162343.06;5070434;28;20426;-61
2023/03/27 10:55:53;;;;;;;3.42;2.25;;;;;;;7.24;100.00;162458.88;5070607;28;20499;-61
2023/03/27 10:58:19;;;;;;;2.58;1.42;;;;;;;7.51;100.00;162528.91;5074450;28;20032;-60
2023/03/27 11:00:57;;;;;;;5.38;2.63;;;;;;;7.43;100.00;162507.34;5072567;28;20119;-60
2023/03/27 11:03:51;;;;;;;10.05;2.90;;;;;;;6.67;100.00;162309.41;5074608;28;20051;-60
2023/03/27 11:06:19;;;;;;;7.13;2.53;;;;;;;5.81;100.00;162084.56;5072072;28;20040;-60
2023/03/27 11:09:04;;;;;;;5.03;2.13;;;;;;;3.67;100.00;161527.91;5073650;28;20419;-60
2023/03/27 11:11:35;;;;;;;3.60;3.25;;;;;;;2.46;100.00;161212.25;5073116;28;20507;-60
2023/03/27 11:14:08;;;;;;;2.63;2.28;;;;;;;1.80;100.00;161040.47;5073963;28;20033;-60
2023/03/27 11:16:42;;;;;;;5.82;2.50;;;;;;;1.66;100.00;161005.59;5072536;28;20097;-60
2023/03/27 11:19:10;;;;;;;3.75;2.58;;;;;;;1.83;100.00;161049.88;5073883;28;20049;-60
2023/03/27 11:21:41;;;;;;;2.90;2.53;;;;;;;1.84;100.00;161052.56;5072747;28;20053;-60
2023/03/27 11:24:32;;;;;;;7.57;4.00;;;;;;;2.15;100.00;161133.09;5073662;28;20028;-61
2023/03/27 11:27:05;;;;;;;4.70;2.85;;;;;;;2.51;100.00;161227.03;5072317;28;20033;-60
2023/03/27 11:29:40;;;;;;;9.07;3.53;;;;;;;2.73;100.00;161283.44;5072518;28;20044;-60
2023/03/27 11:32:18;;;;;;;4.70;3.35;;;;;;;2.81;100.00;161303.59;5072121;28;20428;-60